sensor_id;sensor_type;location;lat;lon;timestamp;pressure;altitude;pressure_sealevel;temperature;humidity
77323;BME280;66384;51.052;9.850;2023-02-02T00:02:13;98685.95;;;3.57;75.88
77323;BME280;66384;51.052;9.850;2023-02-02T00:04:43;98679.14;;;3.57;75.65
77323;BME280;66384;51.052;9.850;2023-02-02T00:07:12;98673.70;;;3.57;75.85
77323;BME280;66384;51.052;9.850;2023-02-02T00:09:41;98665.52;;;3.56;75.69
77323;BME280;66384;51.052;9.850;2023-02-02T00:12:11;98664.62;;;3.55;75.52
77323;BME280;66384;51.052;9.850;2023-02-02T00:14:40;98662.42;;;3.55;75.45
77323;BME280;66384;51.052;9.850;2023-02-02T00:17:10;98658.61;;;3.54;74.95
77323;BME280;66384;51.052;9.850;2023-02-02T00:19:39;98651.64;;;3.54;75.28
77323;BME280;66384;51.052;9.850;2023-02-02T00:22:09;98648.10;;;3.55;74.72
77323;BME280;66384;51.052;9.850;2023-02-02T00:24:38;98655.80;;;3.56;74.90
77323;BME280;66384;51.052;9.850;2023-02-02T00:27:08;98656.06;;;3.57;74.76
77323;BME280;66384;51.052;9.850;2023-02-02T00:29:37;98661.88;;;3.58;74.58
77323;BME280;66384;51.052;9.850;2023-02-02T00:32:07;98657.36;;;3.59;74.60
77323;BME280;66384;51.052;9.850;2023-02-02T00:34:36;98649.98;;;3.61;74.69
77323;BME280;66384;51.052;9.850;2023-02-02T00:37:06;98650.87;;;3.62;74.53
77323;BME280;66384;51.052;9.850;2023-02-02T00:39:35;98659.90;;;3.62;74.39
77323;BME280;66384;51.052;9.850;2023-02-02T00:42:04;98662.94;;;3.62;74.36
77323;BME280;66384;51.052;9.850;2023-02-02T00:44:34;98660.40;;;3.62;74.35
77323;BME280;66384;51.052;9.850;2023-02-02T00:47:20;98665.50;;;3.62;74.36
77323;BME280;66384;51.052;9.850;2023-02-02T00:49:50;98662.27;;;3.62;74.34
77323;BME280;66384;51.052;9.850;2023-02-02T00:52:19;98660.41;;;3.62;74.31
77323;BME280;66384;51.052;9.850;2023-02-02T00:54:49;98667.19;;;3.62;74.19
77323;BME280;66384;51.052;9.850;2023-02-02T00:57:18;98667.02;;;3.62;74.31
77323;BME280;66384;51.052;9.850;2023-02-02T00:59:47;98672.99;;;3.62;74.37
77323;BME280;66384;51.052;9.850;2023-02-02T01:02:16;98671.16;;;3.63;74.32
77323;BME280;66384;51.052;9.850;2023-02-02T01:04:46;98673.01;;;3.62;74.07
77323;BME280;66384;51.052;9.850;2023-02-02T01:07:15;98673.16;;;3.62;74.23
77323;BME280;66384;51.052;9.850;2023-02-02T01:09:44;98673.97;;;3.61;73.75
77323;BME280;66384;51.052;9.850;2023-02-02T01:12:14;98680.85;;;3.60;74.05
77323;BME280;66384;51.052;9.850;2023-02-02T01:14:43;98683.55;;;3.59;73.78
77323;BME280;66384;51.052;9.850;2023-02-02T01:17:12;98689.27;;;3.58;73.98
77323;BME280;66384;51.052;9.850;2023-02-02T01:19:42;98689.90;;;3.57;73.79
77323;BME280;66384;51.052;9.850;2023-02-02T01:22:11;98692.92;;;3.57;73.48
77323;BME280;66384;51.052;9.850;2023-02-02T01:24:40;98687.95;;;3.56;73.50
77323;BME280;66384;51.052;9.850;2023-02-02T01:27:10;98686.09;;;3.56;73.69
77323;BME280;66384;51.052;9.850;2023-02-02T01:29:39;98689.68;;;3.56;73.67
77323;BME280;66384;51.052;9.850;2023-02-02T01:32:09;98690.67;;;3.56;73.42
77323;BME280;66384;51.052;9.850;2023-02-02T01:34:38;98688.45;;;3.55;72.61
77323;BME280;66384;51.052;9.850;2023-02-02T01:37:09;98693.94;;;3.56;72.04
77323;BME280;66384;51.052;9.850;2023-02-02T01:39:39;98694.95;;;3.57;72.52
77323;BME280;66384;51.052;9.850;2023-02-02T01:42:12;98698.31;;;3.59;72.25
77323;BME280;66384;51.052;9.850;2023-02-02T01:45:05;98701.81;;;3.61;72.41
77323;BME280;66384;51.052;9.850;2023-02-02T01:47:39;98708.95;;;3.64;72.46
77323;BME280;66384;51.052;9.850;2023-02-02T01:50:11;98712.30;;;3.66;71.92
77323;BME280;66384;51.052;9.850;2023-02-02T01:52:44;98712.36;;;3.68;71.63
77323;BME280;66384;51.052;9.850;2023-02-02T01:55:16;98707.33;;;3.69;71.76
77323;BME280;66384;51.052;9.850;2023-02-02T01:57:50;98707.88;;;3.70;71.70
77323;BME280;66384;51.052;9.850;2023-02-02T02:00:21;98705.39;;;3.71;71.57
77323;BME280;66384;51.052;9.850;2023-02-02T02:03:11;98708.98;;;3.71;71.78
77323;BME280;66384;51.052;9.850;2023-02-02T02:05:43;98715.94;;;3.71;71.36
77323;BME280;66384;51.052;9.850;2023-02-02T02:08:18;98712.58;;;3.71;71.17
77323;BME280;66384;51.052;9.850;2023-02-02T02:10:48;98714.05;;;3.73;71.14
77323;BME280;66384;51.052;9.850;2023-02-02T02:13:19;98715.81;;;3.75;71.27
77323;BME280;66384;51.052;9.850;2023-02-02T02:16:17;98716.48;;;3.74;71.02
77323;BME280;66384;51.052;9.850;2023-02-02T02:18:57;98716.77;;;3.77;71.31
77323;BME280;66384;51.052;9.850;2023-02-02T02:21:44;98716.00;;;3.78;71.14
77323;BME280;66384;51.052;9.850;2023-02-02T02:25:00;98716.95;;;3.80;70.79
77323;BME280;66384;51.052;9.850;2023-02-02T02:33:56;98715.12;;;3.84;70.06
77323;BME280;66384;51.052;9.850;2023-02-02T02:36:34;98715.21;;;3.86;70.43
77323;BME280;66384;51.052;9.850;2023-02-02T02:39:14;98724.11;;;3.86;70.16
77323;BME280;66384;51.052;9.850;2023-02-02T02:41:48;98718.45;;;3.86;69.92
77323;BME280;66384;51.052;9.850;2023-02-02T02:44:19;98723.36;;;3.85;69.66
77323;BME280;66384;51.052;9.850;2023-02-02T02:46:50;98721.40;;;3.87;70.35
77323;BME280;66384;51.052;9.850;2023-02-02T02:49:19;98719.30;;;3.89;70.46
77323;BME280;66384;51.052;9.850;2023-02-02T02:51:49;98731.96;;;3.91;70.08
77323;BME280;66384;51.052;9.850;2023-02-02T02:54:22;98732.82;;;3.91;70.14
77323;BME280;66384;51.052;9.850;2023-02-02T02:57:08;98734.21;;;3.91;70.42
77323;BME280;66384;51.052;9.850;2023-02-02T02:59:53;98737.90;;;3.93;70.40
77323;BME280;66384;51.052;9.850;2023-02-02T03:02:34;98736.91;;;3.94;70.36
77323;BME280;66384;51.052;9.850;2023-02-02T03:05:20;98740.52;;;3.95;70.48
77323;BME280;66384;51.052;9.850;2023-02-02T03:07:56;98741.09;;;3.96;70.73
77323;BME280;66384;51.052;9.850;2023-02-02T03:10:30;98743.75;;;3.98;70.50
77323;BME280;66384;51.052;9.850;2023-02-02T03:13:01;98741.92;;;3.99;70.63
77323;BME280;66384;51.052;9.850;2023-02-02T03:15:35;98744.89;;;4.00;70.74
77323;BME280;66384;51.052;9.850;2023-02-02T03:18:05;98739.05;;;4.02;70.80
77323;BME280;66384;51.052;9.850;2023-02-02T03:20:34;98737.92;;;4.04;70.60
77323;BME280;66384;51.052;9.850;2023-02-02T03:23:04;98745.38;;;4.06;70.62
77323;BME280;66384;51.052;9.850;2023-02-02T03:25:33;98746.76;;;4.06;70.50
77323;BME280;66384;51.052;9.850;2023-02-02T03:28:03;98749.27;;;4.05;70.70
77323;BME280;66384;51.052;9.850;2023-02-02T03:30:33;98749.10;;;4.06;70.76
77323;BME280;66384;51.052;9.850;2023-02-02T03:33:02;98752.14;;;4.05;70.56
77323;BME280;66384;51.052;9.850;2023-02-02T03:35:32;98749.64;;;4.06;70.73
77323;BME280;66384;51.052;9.850;2023-02-02T03:38:02;98748.57;;;4.05;70.84
77323;BME280;66384;51.052;9.850;2023-02-02T03:40:32;98752.74;;;4.03;70.78
77323;BME280;66384;51.052;9.850;2023-02-02T03:43:01;98755.75;;;4.03;70.83
77323;BME280;66384;51.052;9.850;2023-02-02T03:45:31;98757.58;;;4.02;70.86
77323;BME280;66384;51.052;9.850;2023-02-02T03:48:03;98762.00;;;3.99;70.72
77323;BME280;66384;51.052;9.850;2023-02-02T03:50:32;98763.84;;;3.98;70.81
77323;BME280;66384;51.052;9.850;2023-02-02T03:53:01;98758.28;;;3.96;70.68
77323;BME280;66384;51.052;9.850;2023-02-02T03:55:30;98761.20;;;3.96;70.58
77323;BME280;66384;51.052;9.850;2023-02-02T03:57:59;98761.98;;;3.98;70.45
77323;BME280;66384;51.052;9.850;2023-02-02T04:00:29;98759.37;;;4.00;70.14
77323;BME280;66384;51.052;9.850;2023-02-02T04:02:58;98762.23;;;4.03;70.34
77323;BME280;66384;51.052;9.850;2023-02-02T04:05:27;98767.69;;;4.06;70.35
77323;BME280;66384;51.052;9.850;2023-02-02T04:07:57;98768.86;;;4.09;70.26
77323;BME280;66384;51.052;9.850;2023-02-02T04:10:26;98767.52;;;4.10;70.17
77323;BME280;66384;51.052;9.850;2023-02-02T04:12:55;98766.70;;;4.10;70.23
77323;BME280;66384;51.052;9.850;2023-02-02T04:15:25;98762.66;;;4.11;70.29
77323;BME280;66384;51.052;9.850;2023-02-02T04:17:54;98758.89;;;4.14;70.25
77323;BME280;66384;51.052;9.850;2023-02-02T04:20:24;98761.33;;;4.18;70.25
77323;BME280;66384;51.052;9.850;2023-02-02T04:22:54;98761.65;;;4.21;70.09
77323;BME280;66384;51.052;9.850;2023-02-02T04:25:23;98765.30;;;4.23;69.64
77323;BME280;66384;51.052;9.850;2023-02-02T04:27:52;98764.46;;;4.23;69.93
77323;BME280;66384;51.052;9.850;2023-02-02T04:30:22;98767.61;;;4.25;69.80
77323;BME280;66384;51.052;9.850;2023-02-02T04:32:53;98767.24;;;4.24;69.86
77323;BME280;66384;51.052;9.850;2023-02-02T04:35:22;98770.77;;;4.23;70.11
77323;BME280;66384;51.052;9.850;2023-02-02T04:37:51;98767.72;;;4.23;70.14
77323;BME280;66384;51.052;9.850;2023-02-02T04:40:23;98771.30;;;4.27;70.18
77323;BME280;66384;51.052;9.850;2023-02-02T04:42:52;98771.67;;;4.31;70.07
77323;BME280;66384;51.052;9.850;2023-02-02T04:45:21;98773.19;;;4.33;70.19
77323;BME280;66384;51.052;9.850;2023-02-02T04:47:51;98776.73;;;4.36;70.29
77323;BME280;66384;51.052;9.850;2023-02-02T04:50:20;98779.58;;;4.39;70.31
77323;BME280;66384;51.052;9.850;2023-02-02T04:52:49;98786.12;;;4.40;70.27
77323;BME280;66384;51.052;9.850;2023-02-02T04:55:18;98783.95;;;4.41;70.44
77323;BME280;66384;51.052;9.850;2023-02-02T04:57:48;98787.69;;;4.41;70.58
77323;BME280;66384;51.052;9.850;2023-02-02T05:00:18;98792.79;;;4.41;70.56
77323;BME280;66384;51.052;9.850;2023-02-02T05:02:48;98797.48;;;4.39;70.72
77323;BME280;66384;51.052;9.850;2023-02-02T05:05:17;98799.06;;;4.40;70.77
77323;BME280;66384;51.052;9.850;2023-02-02T05:07:47;98802.91;;;4.39;70.71
77323;BME280;66384;51.052;9.850;2023-02-02T05:10:17;98805.81;;;4.39;70.82
77323;BME280;66384;51.052;9.850;2023-02-02T05:12:46;98812.46;;;4.39;70.99
77323;BME280;66384;51.052;9.850;2023-02-02T05:15:16;98819.84;;;4.41;70.80
77323;BME280;66384;51.052;9.850;2023-02-02T05:17:45;98818.90;;;4.42;70.69
77323;BME280;66384;51.052;9.850;2023-02-02T05:20:14;98819.75;;;4.41;70.89
77323;BME280;66384;51.052;9.850;2023-02-02T05:22:45;98824.37;;;4.42;70.72
77323;BME280;66384;51.052;9.850;2023-02-02T05:25:16;98829.89;;;4.40;71.05
77323;BME280;66384;51.052;9.850;2023-02-02T05:27:47;98831.20;;;4.39;71.18
77323;BME280;66384;51.052;9.850;2023-02-02T05:30:17;98830.27;;;4.38;71.33
77323;BME280;66384;51.052;9.850;2023-02-02T05:32:46;98841.18;;;4.38;71.39
77323;BME280;66384;51.052;9.850;2023-02-02T05:35:16;98844.95;;;4.38;71.56
77323;BME280;66384;51.052;9.850;2023-02-02T05:37:45;98846.41;;;4.37;71.61
77323;BME280;66384;51.052;9.850;2023-02-02T05:40:15;98848.07;;;4.33;71.85
77323;BME280;66384;51.052;9.850;2023-02-02T05:42:47;98850.73;;;4.32;71.95
77323;BME280;66384;51.052;9.850;2023-02-02T05:45:17;98847.11;;;4.31;72.17
77323;BME280;66384;51.052;9.850;2023-02-02T05:47:46;98847.17;;;4.28;72.09
77323;BME280;66384;51.052;9.850;2023-02-02T05:50:16;98849.02;;;4.28;72.37
77323;BME280;66384;51.052;9.850;2023-02-02T05:52:47;98840.31;;;4.28;72.51
77323;BME280;66384;51.052;9.850;2023-02-02T05:55:17;98844.64;;;4.29;72.68
77323;BME280;66384;51.052;9.850;2023-02-02T05:57:47;98843.90;;;4.28;72.55
77323;BME280;66384;51.052;9.850;2023-02-02T06:00:18;98844.05;;;4.28;72.54
77323;BME280;66384;51.052;9.850;2023-02-02T06:02:47;98851.41;;;4.25;72.50
77323;BME280;66384;51.052;9.850;2023-02-02T06:05:17;98845.68;;;4.23;72.53
77323;BME280;66384;51.052;9.850;2023-02-02T06:07:46;98849.09;;;4.20;72.64
77323;BME280;66384;51.052;9.850;2023-02-02T06:10:16;98855.22;;;4.17;72.76
77323;BME280;66384;51.052;9.850;2023-02-02T06:12:45;98854.56;;;4.14;72.96
77323;BME280;66384;51.052;9.850;2023-02-02T06:15:15;98847.14;;;4.12;73.01
77323;BME280;66384;51.052;9.850;2023-02-02T06:17:44;98846.31;;;4.10;73.28
77323;BME280;66384;51.052;9.850;2023-02-02T06:20:15;98843.52;;;4.05;73.49
77323;BME280;66384;51.052;9.850;2023-02-02T06:22:44;98846.91;;;4.02;73.84
77323;BME280;66384;51.052;9.850;2023-02-02T06:25:13;98848.52;;;3.97;74.01
77323;BME280;66384;51.052;9.850;2023-02-02T06:27:43;98849.25;;;3.92;74.27
77323;BME280;66384;51.052;9.850;2023-02-02T06:30:15;98856.02;;;3.85;74.31
77323;BME280;66384;51.052;9.850;2023-02-02T06:32:42;98856.88;;;3.82;74.54
77323;BME280;66384;51.052;9.850;2023-02-02T06:35:12;98861.57;;;3.81;74.78
77323;BME280;66384;51.052;9.850;2023-02-02T06:37:41;98864.07;;;3.80;74.79
77323;BME280;66384;51.052;9.850;2023-02-02T06:40:12;98860.38;;;3.77;74.83
77323;BME280;66384;51.052;9.850;2023-02-02T06:42:41;98862.76;;;3.75;74.92
77323;BME280;66384;51.052;9.850;2023-02-02T06:45:12;98863.02;;;3.73;74.97
77323;BME280;66384;51.052;9.850;2023-02-02T06:47:41;98862.61;;;3.72;75.14
77323;BME280;66384;51.052;9.850;2023-02-02T06:50:11;98869.98;;;3.70;75.15
77323;BME280;66384;51.052;9.850;2023-02-02T06:52:47;98878.06;;;3.68;75.27
77323;BME280;66384;51.052;9.850;2023-02-02T06:55:17;98882.91;;;3.67;75.12
77323;BME280;66384;51.052;9.850;2023-02-02T06:57:47;98877.05;;;3.65;75.36
77323;BME280;66384;51.052;9.850;2023-02-02T07:00:17;98874.94;;;3.67;75.21
77323;BME280;66384;51.052;9.850;2023-02-02T07:02:47;98876.84;;;3.68;75.09
77323;BME280;66384;51.052;9.850;2023-02-02T07:05:16;98879.67;;;3.70;75.22
77323;BME280;66384;51.052;9.850;2023-02-02T07:07:48;98886.77;;;3.72;75.09
77323;BME280;66384;51.052;9.850;2023-02-02T07:10:18;98887.05;;;3.73;75.16
77323;BME280;66384;51.052;9.850;2023-02-02T07:12:48;98893.34;;;3.74;75.08
77323;BME280;66384;51.052;9.850;2023-02-02T07:15:17;98895.08;;;3.74;75.07
77323;BME280;66384;51.052;9.850;2023-02-02T07:17:47;98898.45;;;3.74;74.95
77323;BME280;66384;51.052;9.850;2023-02-02T07:20:17;98901.34;;;3.77;75.09
77323;BME280;66384;51.052;9.850;2023-02-02T07:22:46;98905.54;;;3.79;75.18
77323;BME280;66384;51.052;9.850;2023-02-02T07:25:16;98911.08;;;3.81;75.12
77323;BME280;66384;51.052;9.850;2023-02-02T07:27:45;98919.44;;;3.81;74.83
77323;BME280;66384;51.052;9.850;2023-02-02T07:30:15;98929.05;;;3.82;74.99
77323;BME280;66384;51.052;9.850;2023-02-02T07:32:48;98936.52;;;3.79;74.75
77323;BME280;66384;51.052;9.850;2023-02-02T07:35:17;98939.02;;;3.75;74.89
77323;BME280;66384;51.052;9.850;2023-02-02T07:37:51;98931.84;;;3.72;74.88
77323;BME280;66384;51.052;9.850;2023-02-02T07:40:21;98938.92;;;3.68;74.58
77323;BME280;66384;51.052;9.850;2023-02-02T07:42:51;98943.15;;;3.64;74.71
77323;BME280;66384;51.052;9.850;2023-02-02T07:45:20;98944.34;;;3.61;74.66
77323;BME280;66384;51.052;9.850;2023-02-02T07:47:56;98945.39;;;3.56;74.59
77323;BME280;66384;51.052;9.850;2023-02-02T07:50:26;98945.94;;;3.53;74.59
77323;BME280;66384;51.052;9.850;2023-02-02T07:52:56;98946.56;;;3.49;74.59
77323;BME280;66384;51.052;9.850;2023-02-02T07:55:26;98944.76;;;3.48;74.74
77323;BME280;66384;51.052;9.850;2023-02-02T07:57:55;98951.19;;;3.44;74.36
77323;BME280;66384;51.052;9.850;2023-02-02T08:00:26;98954.15;;;3.37;74.35
77323;BME280;66384;51.052;9.850;2023-02-02T08:02:56;98955.46;;;3.30;74.39
77323;BME280;66384;51.052;9.850;2023-02-02T08:05:26;98958.70;;;3.19;74.04
77323;BME280;66384;51.052;9.850;2023-02-02T08:07:55;98964.16;;;3.10;74.57
77323;BME280;66384;51.052;9.850;2023-02-02T08:10:25;98966.27;;;3.06;74.71
77323;BME280;66384;51.052;9.850;2023-02-02T08:12:54;98973.20;;;3.06;74.82
77323;BME280;66384;51.052;9.850;2023-02-02T08:15:23;98974.73;;;3.05;74.84
77323;BME280;66384;51.052;9.850;2023-02-02T08:17:53;98974.04;;;3.05;75.15
77323;BME280;66384;51.052;9.850;2023-02-02T08:20:22;98980.69;;;3.06;74.73
77323;BME280;66384;51.052;9.850;2023-02-02T08:22:51;98980.86;;;3.06;74.85
77323;BME280;66384;51.052;9.850;2023-02-02T08:25:20;98982.58;;;3.06;74.91
77323;BME280;66384;51.052;9.850;2023-02-02T08:27:53;98985.34;;;3.04;74.76
77323;BME280;66384;51.052;9.850;2023-02-02T08:30:25;98991.69;;;3.02;74.50
77323;BME280;66384;51.052;9.850;2023-02-02T08:32:54;98991.66;;;3.02;74.64
77323;BME280;66384;51.052;9.850;2023-02-02T08:35:23;98990.88;;;3.00;74.43
77323;BME280;66384;51.052;9.850;2023-02-02T08:37:53;98990.83;;;2.99;74.43
77323;BME280;66384;51.052;9.850;2023-02-02T08:40:22;98993.06;;;2.96;74.49
77323;BME280;66384;51.052;9.850;2023-02-02T08:42:54;98994.04;;;2.93;74.38
77323;BME280;66384;51.052;9.850;2023-02-02T08:45:24;98997.86;;;2.92;74.59
77323;BME280;66384;51.052;9.850;2023-02-02T08:47:53;99001.16;;;2.90;74.75
77323;BME280;66384;51.052;9.850;2023-02-02T08:50:23;99002.98;;;2.89;74.68
77323;BME280;66384;51.052;9.850;2023-02-02T08:52:52;99004.98;;;2.89;74.70
77323;BME280;66384;51.052;9.850;2023-02-02T08:55:21;99005.84;;;2.89;74.82
77323;BME280;66384;51.052;9.850;2023-02-02T08:57:51;99008.37;;;2.91;75.04
77323;BME280;66384;51.052;9.850;2023-02-02T09:00:21;99007.48;;;2.94;75.07
77323;BME280;66384;51.052;9.850;2023-02-02T09:02:51;99007.14;;;2.94;74.71
77323;BME280;66384;51.052;9.850;2023-02-02T09:05:21;99010.31;;;2.90;74.74
77323;BME280;66384;51.052;9.850;2023-02-02T09:07:50;99013.30;;;2.89;74.73
77323;BME280;66384;51.052;9.850;2023-02-02T09:10:19;99013.82;;;2.89;74.81
77323;BME280;66384;51.052;9.850;2023-02-02T09:12:49;99020.13;;;2.89;74.71
77323;BME280;66384;51.052;9.850;2023-02-02T09:15:18;99018.58;;;2.91;74.68
77323;BME280;66384;51.052;9.850;2023-02-02T09:17:47;99020.10;;;2.94;74.71
77323;BME280;66384;51.052;9.850;2023-02-02T09:20:17;99021.33;;;2.95;74.66
77323;BME280;66384;51.052;9.850;2023-02-02T09:22:46;99024.98;;;2.96;74.70
77323;BME280;66384;51.052;9.850;2023-02-02T09:25:15;99026.41;;;2.98;74.69
77323;BME280;66384;51.052;9.850;2023-02-02T09:27:45;99024.83;;;2.94;74.23
77323;BME280;66384;51.052;9.850;2023-02-02T09:30:15;99021.45;;;2.86;74.37
77323;BME280;66384;51.052;9.850;2023-02-02T09:32:46;99025.14;;;2.80;74.49
77323;BME280;66384;51.052;9.850;2023-02-02T09:35:16;99025.48;;;2.77;74.64
77323;BME280;66384;51.052;9.850;2023-02-02T09:37:46;99029.60;;;2.78;74.69
77323;BME280;66384;51.052;9.850;2023-02-02T09:40:18;99029.05;;;2.80;74.86
77323;BME280;66384;51.052;9.850;2023-02-02T09:42:59;99031.94;;;2.83;74.87
77323;BME280;66384;51.052;9.850;2023-02-02T09:45:33;99037.92;;;2.86;75.06
77323;BME280;66384;51.052;9.850;2023-02-02T09:48:14;99037.42;;;2.89;74.71
77323;BME280;66384;51.052;9.850;2023-02-02T09:50:51;99045.66;;;2.93;74.73
77323;BME280;66384;51.052;9.850;2023-02-02T09:53:27;99048.27;;;2.97;74.92
77323;BME280;66384;51.052;9.850;2023-02-02T09:56:05;99050.40;;;3.01;74.81
77323;BME280;66384;51.052;9.850;2023-02-02T09:58:38;99052.07;;;3.03;74.56
77323;BME280;66384;51.052;9.850;2023-02-02T10:01:11;99057.30;;;3.05;74.73
77323;BME280;66384;51.052;9.850;2023-02-02T10:03:44;99061.33;;;3.07;74.76
77323;BME280;66384;51.052;9.850;2023-02-02T10:06:25;99061.84;;;3.07;74.65
77323;BME280;66384;51.052;9.850;2023-02-02T10:09:05;99062.11;;;3.09;74.72
77323;BME280;66384;51.052;9.850;2023-02-02T10:11:43;99069.30;;;3.13;74.69
77323;BME280;66384;51.052;9.850;2023-02-02T10:14:24;99072.76;;;3.13;74.65
77323;BME280;66384;51.052;9.850;2023-02-02T10:16:58;99076.10;;;3.15;74.84
77323;BME280;66384;51.052;9.850;2023-02-02T10:19:30;99075.93;;;3.15;74.67
77323;BME280;66384;51.052;9.850;2023-02-02T10:22:04;99076.91;;;3.12;74.50
77323;BME280;66384;51.052;9.850;2023-02-02T10:24:37;99080.65;;;3.12;74.78
77323;BME280;66384;51.052;9.850;2023-02-02T10:27:10;99075.82;;;3.13;74.60
77323;BME280;66384;51.052;9.850;2023-02-02T10:29:47;99078.60;;;3.14;74.59
77323;BME280;66384;51.052;9.850;2023-02-02T10:32:24;99078.70;;;3.16;74.54
77323;BME280;66384;51.052;9.850;2023-02-02T10:35:15;99078.58;;;3.20;74.70
77323;BME280;66384;51.052;9.850;2023-02-02T10:37:50;99082.90;;;3.24;74.93
77323;BME280;66384;51.052;9.850;2023-02-02T10:40:35;99085.33;;;3.28;74.66
77323;BME280;66384;51.052;9.850;2023-02-02T10:43:20;99086.00;;;3.30;74.64
77323;BME280;66384;51.052;9.850;2023-02-02T10:46:21;99091.07;;;3.32;74.74
77323;BME280;66384;51.052;9.850;2023-02-02T10:49:07;99090.30;;;3.34;74.52
77323;BME280;66384;51.052;9.850;2023-02-02T10:51:39;99092.39;;;3.32;74.47
77323;BME280;66384;51.052;9.850;2023-02-02T10:54:24;99091.41;;;3.30;74.37
77323;BME280;66384;51.052;9.850;2023-02-02T10:56:59;99095.42;;;3.31;74.37
77323;BME280;66384;51.052;9.850;2023-02-02T10:59:34;99101.96;;;3.33;74.65
77323;BME280;66384;51.052;9.850;2023-02-02T11:02:10;99098.04;;;3.32;74.49
77323;BME280;66384;51.052;9.850;2023-02-02T11:04:39;99095.58;;;3.37;74.55
77323;BME280;66384;51.052;9.850;2023-02-02T11:07:26;99099.89;;;3.43;74.62
77323;BME280;66384;51.052;9.850;2023-02-02T11:09:56;99098.48;;;3.48;74.29
77323;BME280;66384;51.052;9.850;2023-02-02T11:12:30;99101.73;;;3.51;74.27
77323;BME280;66384;51.052;9.850;2023-02-02T11:15:04;99099.88;;;3.54;74.40
77323;BME280;66384;51.052;9.850;2023-02-02T11:17:34;99100.86;;;3.53;74.08
77323;BME280;66384;51.052;9.850;2023-02-02T11:20:22;99097.66;;;3.51;74.38
77323;BME280;66384;51.052;9.850;2023-02-02T11:23:02;99104.79;;;3.54;74.31
77323;BME280;66384;51.052;9.850;2023-02-02T11:25:33;99115.64;;;3.53;74.23
77323;BME280;66384;51.052;9.850;2023-02-02T11:28:15;99117.25;;;3.54;74.40
77323;BME280;66384;51.052;9.850;2023-02-02T11:30:49;99113.77;;;3.59;74.62
77323;BME280;66384;51.052;9.850;2023-02-02T11:33:29;99113.63;;;3.65;74.54
77323;BME280;66384;51.052;9.850;2023-02-02T11:36:01;99108.20;;;3.69;74.38
77323;BME280;66384;51.052;9.850;2023-02-02T11:38:32;99104.81;;;3.71;74.16
77323;BME280;66384;51.052;9.850;2023-02-02T11:41:03;99103.33;;;3.72;74.07
77323;BME280;66384;51.052;9.850;2023-02-02T11:43:36;99108.14;;;3.70;73.85
77323;BME280;66384;51.052;9.850;2023-02-02T11:46:18;99115.27;;;3.70;73.80
77323;BME280;66384;51.052;9.850;2023-02-02T11:48:52;99114.68;;;3.69;74.00
77323;BME280;66384;51.052;9.850;2023-02-02T11:51:26;99117.88;;;3.71;74.03
77323;BME280;66384;51.052;9.850;2023-02-02T11:54:04;99121.58;;;3.73;74.11
77323;BME280;66384;51.052;9.850;2023-02-02T11:56:32;99125.44;;;3.75;73.87
77323;BME280;66384;51.052;9.850;2023-02-02T11:59:03;99129.52;;;3.75;73.64
77323;BME280;66384;51.052;9.850;2023-02-02T12:01:35;99132.10;;;3.76;73.67
77323;BME280;66384;51.052;9.850;2023-02-02T12:04:23;99130.77;;;3.79;74.02
77323;BME280;66384;51.052;9.850;2023-02-02T12:06:53;99138.86;;;3.83;73.85
77323;BME280;66384;51.052;9.850;2023-02-02T12:09:24;99138.05;;;3.84;73.61
77323;BME280;66384;51.052;9.850;2023-02-02T12:12:02;99141.77;;;3.86;73.85
77323;BME280;66384;51.052;9.850;2023-02-02T12:14:38;99142.05;;;3.88;73.71
77323;BME280;66384;51.052;9.850;2023-02-02T12:17:22;99143.62;;;3.86;73.30
77323;BME280;66384;51.052;9.850;2023-02-02T12:20:21;99146.70;;;3.83;73.48
77323;BME280;66384;51.052;9.850;2023-02-02T12:23:14;99147.16;;;3.82;73.39
77323;BME280;66384;51.052;9.850;2023-02-02T12:25:55;99146.27;;;3.79;73.26
77323;BME280;66384;51.052;9.850;2023-02-02T12:28:38;99145.38;;;3.78;73.20
77323;BME280;66384;51.052;9.850;2023-02-02T12:31:19;99142.56;;;3.74;73.18
77323;BME280;66384;51.052;9.850;2023-02-02T12:33:59;99140.44;;;3.70;73.53
77323;BME280;66384;51.052;9.850;2023-02-02T12:36:45;99140.58;;;3.66;73.48
77323;BME280;66384;51.052;9.850;2023-02-02T12:39:26;99141.27;;;3.61;73.55
77323;BME280;66384;51.052;9.850;2023-02-02T12:42:20;99141.77;;;3.58;73.77
77323;BME280;66384;51.052;9.850;2023-02-02T12:45:01;99146.54;;;3.61;73.90
77323;BME280;66384;51.052;9.850;2023-02-02T12:47:40;99146.28;;;3.59;73.67
77323;BME280;66384;51.052;9.850;2023-02-02T12:53:41;99143.50;;;3.61;73.92
77323;BME280;66384;51.052;9.850;2023-02-02T12:56:20;99145.95;;;3.62;73.82
77323;BME280;66384;51.052;9.850;2023-02-02T12:58:57;99144.27;;;3.63;73.72
77323;BME280;66384;51.052;9.850;2023-02-02T13:01:43;99147.77;;;3.64;74.04
77323;BME280;66384;51.052;9.850;2023-02-02T13:04:31;99150.95;;;3.67;74.11
77323;BME280;66384;51.052;9.850;2023-02-02T13:07:24;99153.14;;;3.72;74.39
77323;BME280;66384;51.052;9.850;2023-02-02T13:10:10;99151.02;;;3.76;73.92
77323;BME280;66384;51.052;9.850;2023-02-02T13:12:44;99154.48;;;3.74;73.95
77323;BME280;66384;51.052;9.850;2023-02-02T13:15:18;99152.01;;;3.76;74.02
77323;BME280;66384;51.052;9.850;2023-02-02T13:17:52;99150.06;;;3.77;74.27
77323;BME280;66384;51.052;9.850;2023-02-02T13:20:25;99148.67;;;3.79;73.98
77323;BME280;66384;51.052;9.850;2023-02-02T13:22:58;99149.14;;;3.79;73.98
77323;BME280;66384;51.052;9.850;2023-02-02T13:25:32;99147.36;;;3.77;73.94
77323;BME280;66384;51.052;9.850;2023-02-02T13:28:04;99139.42;;;3.73;73.82
77323;BME280;66384;51.052;9.850;2023-02-02T13:30:37;99141.40;;;3.69;73.89
77323;BME280;66384;51.052;9.850;2023-02-02T13:33:12;99143.42;;;3.69;74.05
77323;BME280;66384;51.052;9.850;2023-02-02T13:35:50;99143.25;;;3.66;74.02
77323;BME280;66384;51.052;9.850;2023-02-02T13:38:20;99143.36;;;3.64;74.09
77323;BME280;66384;51.052;9.850;2023-02-02T13:40:52;99145.26;;;3.68;74.56
77323;BME280;66384;51.052;9.850;2023-02-02T13:43:37;99152.20;;;3.73;74.48
77323;BME280;66384;51.052;9.850;2023-02-02T13:46:14;99150.22;;;3.77;74.42
77323;BME280;66384;51.052;9.850;2023-02-02T13:48:55;99151.23;;;3.79;74.67
77323;BME280;66384;51.052;9.850;2023-02-02T13:51:46;99156.26;;;3.81;74.53